Westchester County Airport
KHPN : now visible

Airfield :











YOU CAN JOIN US ON...

 
LOGIN :

Register | Disclaimer

   EN    FR    IT 

 









Legend :    VFR   Marginal VFR   IFR   Intensive IFR   Very Intensive IFR
Visi :
Ceiling :
>= 8 km
>= 3000ft
5 to 8 km
1000 to 3000 ft
1500m to 5 km
500 to 1000 ft
800 to 1500m
200 to 500 ft
< 800m
< 200 ft
Symbols :   Thunderstorms  Fog  Heavy snow  Heavy precipitations  Wind > 20 kt






- Airport Elevation : 439 ft
- IATA code : HPN


KHPN - Westchester County

CURRENT METAR :
  • 241056Z 00000KT 10SM CLR M01/M07 A3004 RMK AO2 SLP178 T10061072

EXPIRED METARs :
  • 240956Z 00000KT 10SM CLR 00/M07 A3004 RMK AO2 SLP178 T00001072
  • 240856Z 00000KT 10SM FEW090 01/M05 A3004 RMK AO2 SLP177 T00061050 56008

TAF KHPN
Valid from the 24 at 09:00 until the 25 at 06:00 UTC


240838Z 2409/2506 VRB03KT P6SM SKC
FM241600 20005KT P6SM SCT250
FM241900 15007KT P6SM BKN250
FM250000 VRB03KT P6SM OVC100 AMD NOT SKED



MET'MAP, your aeronautical weather chart ! - Copyright ORBIFLY December 2007 - Disclaimer

ORBIFLY MET'MAP TEAM :

Programming & Development : Alexandra Zaïnal
Concept & original design : Baudouin d'Aumeries
Assistance for programming : Marc-Olivier Méhu
Technical & hardware support : Manuel Goepfert

Contact : metmap@orbifly.com




SOURCES & CREDITS :

   NOAA       Earth
Advisory